Nearby METAR Reports


RPLC - Angeles/Pampanga, Philippines
Distance from station: S 166km
Updated: Tue, 19-Mar-2019 9:00am +08
Partly cloudy
Partly cloudy
 Wind from NNE
Wind: NNE 11 km/h
Temperature: 28°C
Heat Index: 29°C
Dew Point: 19°C
Humidity: 58%
Barometer: 1015 hPa
Clouds: Partly cloudy
Visibility: 10 km
Cloud details: Few Clouds 610 m
Partly cloudy 9144 m
2019/03/19 01:00 RPLC 190100Z 02006KT 9999 FEW020 SCT300 28/19 Q1015 NOSIG RMK A2997
RPLI - Laoag Intl Airport, Philippines
Distance from station: N 171km
Updated: Tue, 19-Mar-2019 9:00am +08
Partly cloudy
Partly cloudy
 Wind from SE
Wind: SE 6 km/h
Temperature: 30°C
Heat Index: 34°C
Dew Point: 23°C
Humidity: 66%
Barometer: 1014 hPa
Clouds: Partly cloudy
Visibility: 10 km
Cloud details: Few Clouds 549 m
Partly cloudy 8839 m
2019/03/19 01:00 RPLI 190100Z 14003KT 070V230 9999 FEW018 SCT290 30/23 Q1014 NOSIG RMK A2994
 
RPLB - Olongapo/Subic, Philippines
Distance from station: S 205km
Updated: Tue, 19-Mar-2019 9:00am +08
Partly cloudy
Partly cloudy
 Wind from E
Wind: E 24 km/h
Temperature: 29°C
Heat Index: 30°C
Dew Point: 19°C
Humidity: 55%
Barometer: 1015 hPa
Clouds: Partly cloudy
Visibility: 10 km
Cloud details: Few Clouds 610 m
Partly cloudy 9144 m
2019/03/19 01:00 RPLB 190100Z 08013KT 9999 FEW020 SCT300 29/19 Q1015 NOSIG RMK A2997
RPLL - Ninoy Aquino Intl Airport, Philippines
Distance from station: SSE 247km
Updated: Tue, 19-Mar-2019 9:00am +08
Few Clouds
Few Clouds
 Wind from E
Wind: E 15 km/h
Temperature: 30°C
Heat Index: 31°C
Dew Point: 18°C
Humidity: 49%
Barometer: 1014 hPa
Clouds: Few Clouds
Visibility: 10 km
Cloud details: Few Clouds 762 m
2019/03/19 01:00 RPLL 190100Z 08008KT 9999 FEW025 30/18 Q1014 NOSIG RMK A2994